Newquay, United Kingdom

12:52 AM BST on September 04, 2015 (GMT +0100)
Newquay | | Change Station
CLOSE
Current Station
Personal Weather Station
Location: Newquay, CORNWALL
Elevation: 119 ft
Nearby Weather Stations

Elev 119 ft 50.42 °N, 5.05 °W | Updated 7 minutes ago

Mostly Cloudy
Mostly Cloudy
57.4 °F
Feels Like 57.4 °F
N
5.0
Wind Variable Wind from North
Gusts 12.0 mph

Today
High -- | Low -- °F
--% Chance of Precip.
Yesterday
High -- | Low -- °F
Precip. -- in
6:38 AM 7:58 PM
Waning Gibbous, 65% visible
Pressure 30.12 in
Visibility 6.2 miles
Clouds Few 1200 ft
Mostly Cloudy 4000 ft
Dew Point 49 °F
Humidity 74%
Rainfall 0.00 in
Snow Depth Not available.
UV 0 out of 12
Pollen Not available.
Air Quality Not available.
Flu Activity Not available.
METAR EGDR 032250Z 30006KT 9999 FEW012 BKN040 12/10 Q1020 BLU
Pressure 30.12 in
Visibility 6.2 miles
Clouds Few 1200 ft
Mostly Cloudy 4000 ft
Dew Point 49 °F
Humidity 74%
Rainfall 0.00 in
Snow Depth Not available.
UV 0 out of 12
Pollen Not available.
Air Quality Not available.
Flu Activity Not available.
METAR EGDR 032250Z 30006KT 9999 FEW012 BKN040 12/10 Q1020 BLU

10-Day Weather Forecast

×

Almanac

Astronomy

Sep. 04, 2015 Rise Set
Actual Time
Civil Twilight
Nautical Twilight
Astronomical Twilight
Moon
Length of Visible Light
Length of Day
Tomorrow will be .
, % of the Moon is Illuminated

Today's Extremes

Country Highs Country Lows

Community

WunderPhotos

Upload Photos

1,852,063 photos uploaded!

WunderBlogs® & News

Nearby

Air Quality

  Air Quality AQ Index Pollutant
Not available.

Snow Depth

Station Depth Elevation

Earthquake Activity

City Distance Mag. Time & Date
Minimum magnitude displayed is 2.5.

Coastal Water Temperatures

Place Temperature

Stations

Nearby Weather Stations

Station Location Temp. Windchill Dew Point Humidity Wind Precip. Elev Updated Type